Barstow Daggett Airport
KDAG : now visible

Airfield :











YOU CAN JOIN US ON...

 
LOGIN :

Register | Disclaimer

   EN    FR    IT 

 









Legend :    VFR   Marginal VFR   IFR   Intensive IFR   Very Intensive IFR
Visi :
Ceiling :
>= 8 km
>= 3000ft
5 to 8 km
1000 to 3000 ft
1500m to 5 km
500 to 1000 ft
800 to 1500m
200 to 500 ft
< 800m
< 200 ft
Symbols :   Thunderstorms  Fog  Heavy snow  Heavy precipitations  Wind > 20 kt






- Airport Elevation : 1930 ft


KDAG - Barstow Daggett

CURRENT METAR :
  • 170435Z AUTO 26023G29KT 3SM HZ FEW001 18/M03 A2995 RMK AO2 PK WND 25029/0430 T01831028

EXPIRED METARs :
  • 170350Z AUTO 26015KT 10SM CLR 19/M03 A2994 RMK AO2 SLP127 T01891028
  • 170250Z AUTO 27011KT 10SM CLR 19/M02 A2995 RMK AO2 SLP131 T01941022 53010
  • 170150Z AUTO 28016KT 10SM CLR 21/M01 A2994 RMK AO2 PK WND 26026/0114 SLP124 T02111011

TAF KDAG
Valid from the 17 at 00:00 until the 18 at 00:00 UTC


162322Z 1700/1724 VRB05KT P6SM SCT150 SCT250
FM170300 26011KT P6SM SCT250
FM172000 03008KT P6SM SCT250



MET'MAP, your aeronautical weather chart ! - Copyright ORBIFLY December 2007 - Disclaimer

ORBIFLY MET'MAP TEAM :

Programming & Development : Alexandra Zaïnal
Concept & original design : Baudouin d'Aumeries
Assistance for programming : Marc-Olivier Méhu
Technical & hardware support : Manuel Goepfert

Contact : metmap@orbifly.com




SOURCES & CREDITS :

   NOAA       Earth
Advisory